createdAt,value
2023-01-05T00:01:52.802Z,90.03
2023-01-05T00:06:49.309Z,89.04
2023-01-05T00:12:04.192Z,89.65
2023-01-05T00:17:19.936Z,90.35
2023-01-05T00:22:34.156Z,90.34
2023-01-05T00:27:31.043Z,92.24
2023-01-05T00:32:28.428Z,97.09
2023-01-05T00:37:25.669Z,98.35
2023-01-05T00:42:23.218Z,98.75
2023-01-05T00:47:19.764Z,99.00
2023-01-05T00:52:17.126Z,99.23
2023-01-05T00:57:14.207Z,99.24
2023-01-05T01:02:11.423Z,98.45
2023-01-05T01:07:08.296Z,98.96
2023-01-05T01:12:05.647Z,98.73
2023-01-05T01:17:02.253Z,98.05
2023-01-05T01:21:58.902Z,98.83
2023-01-05T01:26:56.060Z,97.45
2023-01-05T01:31:53.811Z,97.20
2023-01-05T01:36:50.418Z,96.56
2023-01-05T01:41:52.093Z,97.60
2023-01-05T01:46:48.702Z,97.26
2023-01-05T01:51:47.813Z,97.33
2023-01-05T01:56:49.449Z,97.18
2023-01-05T02:01:48.965Z,99.29
2023-01-05T02:06:46.368Z,99.69
2023-01-05T02:11:46.650Z,100.00
2023-01-05T02:16:57.149Z,99.79
2023-01-05T02:22:01.171Z,99.21
2023-01-05T02:27:09.162Z,99.56
2023-01-05T02:32:12.985Z,99.34
2023-01-05T02:37:13.919Z,100.00
2023-01-05T02:42:15.135Z,100.00
2023-01-05T02:47:27.733Z,98.88
2023-01-05T02:52:27.372Z,97.78
2023-01-05T02:57:46.362Z,97.12
2023-01-05T03:02:49.278Z,97.46
2023-01-05T03:07:47.831Z,99.57
2023-01-05T03:13:04.049Z,97.98
2023-01-05T03:18:04.256Z,100.00
2023-01-05T03:23:21.911Z,100.00
2023-01-05T03:28:39.067Z,100.00
2023-01-05T03:34:01.470Z,100.00
2023-01-05T03:39:01.408Z,100.00
2023-01-05T03:44:00.231Z,100.00
2023-01-05T03:49:00.965Z,100.00
2023-01-05T03:53:58.040Z,99.49
2023-01-05T03:58:55.553Z,98.38
2023-01-05T04:03:53.078Z,98.23
2023-01-05T04:08:49.940Z,98.76
2023-01-05T04:13:48.117Z,99.15
2023-01-05T04:18:46.184Z,99.74
2023-01-05T04:23:46.557Z,96.75
2023-01-05T04:28:44.815Z,98.31
2023-01-05T04:33:44.763Z,97.86
2023-01-05T04:38:46.813Z,97.11
2023-01-05T04:43:43.825Z,96.17
2023-01-05T04:48:42.419Z,97.46
2023-01-05T04:53:39.180Z,98.01
2023-01-05T04:58:39.420Z,98.10
2023-01-05T05:03:37.547Z,97.89
2023-01-05T05:08:38.401Z,97.69
2023-01-05T05:13:35.264Z,96.42
2023-01-05T05:18:33.459Z,96.65
2023-01-05T05:23:30.975Z,96.06
2023-01-05T05:28:29.132Z,96.83
2023-01-05T05:33:26.176Z,96.34
2023-01-05T05:38:23.496Z,95.49
2023-01-05T05:43:20.045Z,95.17
2023-01-05T05:48:16.701Z,95.51
2023-01-05T05:53:13.398Z,94.80
2023-01-05T05:58:10.810Z,94.79
2023-01-05T06:03:07.410Z,95.67
2023-01-05T06:08:04.286Z,96.66
2023-01-05T06:13:01.001Z,95.52
2023-01-05T06:17:58.221Z,95.86
2023-01-05T06:22:54.927Z,94.65
2023-01-05T06:27:54.443Z,95.29
2023-01-05T06:32:51.108Z,93.91
2023-01-05T06:37:48.510Z,93.12
2023-01-05T06:42:45.071Z,94.44
2023-01-05T06:47:41.925Z,96.34
2023-01-05T06:52:39.556Z,97.26
2023-01-05T06:57:36.904Z,95.65
2023-01-05T07:02:33.819Z,96.21
2023-01-05T07:07:30.312Z,96.33
2023-01-05T07:12:26.902Z,95.12
2023-01-05T07:17:24.410Z,95.35
2023-01-05T07:22:21.295Z,95.17
2023-01-05T07:27:17.949Z,93.53
2023-01-05T07:32:14.592Z,92.51
2023-01-05T07:37:23.875Z,92.36
2023-01-05T07:42:27.351Z,92.99
2023-01-05T07:47:30.294Z,93.16
2023-01-05T07:52:32.939Z,90.67
2023-01-05T07:57:36.985Z,89.82
2023-01-05T08:02:49.978Z,89.08
2023-01-05T08:08:09.142Z,89.01
2023-01-05T08:13:49.527Z,89.13
2023-01-05T08:19:11.021Z,89.60
2023-01-05T08:24:16.087Z,89.73
2023-01-05T08:29:29.974Z,89.70
2023-01-05T08:34:46.193Z,89.27
2023-01-05T08:40:19.676Z,89.20
2023-01-05T08:45:49.451Z,90.01
2023-01-05T08:50:48.171Z,90.31
2023-01-05T08:55:49.831Z,88.71
2023-01-05T09:00:59.882Z,89.19
2023-01-05T09:06:02.706Z,89.26
2023-01-05T09:11:06.167Z,90.47
2023-01-05T09:16:07.224Z,89.44
2023-01-05T09:21:05.505Z,90.11
2023-01-05T09:26:03.475Z,89.63
2023-01-05T09:31:05.739Z,91.05
2023-01-05T09:36:02.559Z,89.83
2023-01-05T09:41:03.665Z,90.20
2023-01-05T09:46:03.069Z,90.96
2023-01-05T09:50:59.670Z,90.87
2023-01-05T09:55:57.546Z,89.96
2023-01-05T10:01:04.496Z,90.19
2023-01-05T10:06:01.612Z,89.95
2023-01-05T10:11:20.895Z,89.85
2023-01-05T10:16:18.396Z,89.95
2023-01-05T10:21:20.967Z,88.42
2023-01-05T10:26:21.456Z,87.83
2023-01-05T10:31:23.342Z,87.51
2023-01-05T10:37:06.187Z,87.41
2023-01-05T10:41:48.066Z,85.66
2023-01-05T10:46:52.414Z,84.65
2023-01-05T10:51:56.293Z,83.26
2023-01-05T10:56:53.498Z,82.70
2023-01-05T11:01:50.874Z,82.56
2023-01-05T11:06:47.665Z,80.98
2023-01-05T11:11:52.374Z,80.98
2023-01-05T11:16:50.540Z,78.10
2023-01-05T11:21:48.281Z,77.57
2023-01-05T11:26:48.103Z,77.93
2023-01-05T11:31:47.444Z,77.38
2023-01-05T11:37:49.535Z,78.04
2023-01-05T11:42:46.879Z,77.34
2023-01-05T11:47:44.951Z,77.00
2023-01-05T11:52:46.840Z,74.78
2023-01-05T11:57:43.647Z,72.67
2023-01-05T12:03:01.779Z,70.97
2023-01-05T12:07:59.912Z,70.45
2023-01-05T12:13:00.774Z,70.31
2023-01-05T12:18:10.830Z,69.61
2023-01-05T12:23:13.310Z,68.83
2023-01-05T12:28:39.733Z,68.11
2023-01-05T12:34:04.976Z,68.67
2023-01-05T12:39:09.611Z,67.63
2023-01-05T12:44:14.629Z,66.24
2023-01-05T12:49:15.144Z,65.50
2023-01-05T12:54:17.742Z,63.35
2023-01-05T12:59:17.138Z,62.36
2023-01-05T13:04:27.427Z,62.83
2023-01-05T13:09:30.339Z,62.24
2023-01-05T13:20:36.145Z,62.78
2023-01-05T13:25:35.749Z,62.13
2023-01-05T13:30:45.266Z,61.86
2023-01-05T13:35:53.630Z,61.92
2023-01-05T13:40:56.389Z,61.28
2023-01-05T13:46:02.559Z,60.48
2023-01-05T13:51:12.424Z,59.17
2023-01-05T13:56:14.663Z,59.22
2023-01-05T14:01:17.242Z,59.56
2023-01-05T14:06:19.670Z,59.40
2023-01-05T14:11:17.794Z,60.14
2023-01-05T14:16:47.774Z,60.56
2023-01-05T14:21:59.817Z,60.65
2023-01-05T14:27:01.095Z,60.70
2023-01-05T14:32:05.533Z,61.23
2023-01-05T14:37:04.993Z,61.37
2023-01-05T14:42:04.225Z,61.47
2023-01-05T14:47:01.581Z,61.51
2023-01-05T14:51:59.255Z,60.04
2023-01-05T14:57:10.786Z,58.64
2023-01-05T15:02:16.906Z,57.64
2023-01-05T15:07:20.993Z,57.37
2023-01-05T15:12:32.466Z,57.12
2023-01-05T15:17:44.622Z,57.32
2023-01-05T15:22:55.356Z,57.25
2023-01-05T15:27:56.277Z,57.68
2023-01-05T15:33:00.149Z,57.65
2023-01-05T15:37:57.043Z,58.64
2023-01-05T15:42:55.533Z,59.28
2023-01-05T15:47:52.841Z,60.00
2023-01-05T15:52:54.099Z,59.80
2023-01-05T15:57:52.407Z,60.31
2023-01-05T16:02:49.137Z,60.41
2023-01-05T16:07:48.182Z,60.54
2023-01-05T16:12:46.443Z,60.95
2023-01-05T16:17:43.127Z,61.49
2023-01-05T16:22:43.056Z,61.11
2023-01-05T16:27:40.488Z,60.80
2023-01-05T16:32:38.618Z,60.69
2023-01-05T16:37:35.272Z,59.61
2023-01-05T16:42:34.879Z,59.72
2023-01-05T16:47:33.383Z,59.83
2023-01-05T16:52:39.056Z,59.53
2023-01-05T16:57:43.116Z,58.54
2023-01-05T17:02:43.308Z,58.46
2023-01-05T17:07:42.683Z,58.38
2023-01-05T17:12:39.496Z,58.99
2023-01-05T17:17:36.080Z,59.27
2023-01-05T17:22:32.609Z,59.87
2023-01-05T17:27:29.870Z,60.89
2023-01-05T17:32:26.463Z,60.69
2023-01-05T17:37:23.122Z,61.25
2023-01-05T17:42:37.654Z,61.65
2023-01-05T17:52:32.368Z,61.71
2023-01-05T17:57:29.108Z,62.05
2023-01-05T18:02:25.970Z,62.27
2023-01-05T18:07:23.324Z,61.91
2023-01-05T18:12:19.941Z,62.04
2023-01-05T18:17:16.693Z,61.97
2023-01-05T18:22:13.731Z,61.73
2023-01-05T18:27:11.583Z,61.74
2023-01-05T18:32:11.725Z,61.34
2023-01-05T18:37:15.703Z,61.08
2023-01-05T18:42:18.223Z,60.90
2023-01-05T18:47:14.992Z,60.90
2023-01-05T18:52:11.740Z,60.98
2023-01-05T18:57:08.463Z,61.04
2023-01-05T19:02:06.277Z,60.33
2023-01-05T19:07:02.979Z,60.37
2023-01-05T19:11:59.467Z,60.44
2023-01-05T19:16:56.047Z,60.63
2023-01-05T19:21:54.728Z,61.33
2023-01-05T19:26:51.717Z,60.38
2023-01-05T19:31:48.673Z,60.39
2023-01-05T19:36:45.683Z,60.67
2023-01-05T19:41:46.491Z,61.99
2023-01-05T19:46:43.824Z,62.47
2023-01-05T19:51:40.371Z,62.47
2023-01-05T19:56:37.758Z,62.97
2023-01-05T20:01:35.805Z,63.95
2023-01-05T20:06:33.532Z,64.05
2023-01-05T20:11:39.156Z,65.22
2023-01-05T20:16:36.959Z,64.91
2023-01-05T20:21:33.592Z,65.16
2023-01-05T20:26:30.813Z,65.38
2023-01-05T20:31:29.003Z,65.96
2023-01-05T20:36:26.961Z,66.49
2023-01-05T20:41:24.564Z,66.60
2023-01-05T20:46:22.237Z,66.53
2023-01-05T20:51:20.580Z,66.87
2023-01-05T20:56:18.626Z,66.84
2023-01-05T21:01:15.348Z,66.23
2023-01-05T21:06:13.862Z,66.53
2023-01-05T21:11:15.180Z,66.94
2023-01-05T21:16:15.204Z,66.80
2023-01-05T21:21:13.458Z,66.81
2023-01-05T21:26:10.919Z,67.27
2023-01-05T21:31:11.709Z,67.87
2023-01-05T21:36:13.026Z,67.79
2023-01-05T21:41:10.475Z,68.47
2023-01-05T21:46:08.273Z,68.47
2023-01-05T21:51:23.424Z,69.81
2023-01-05T21:56:27.602Z,69.36
2023-01-05T22:01:24.817Z,69.42
2023-01-05T22:06:21.575Z,69.54
2023-01-05T22:11:18.182Z,70.09
2023-01-05T22:16:15.531Z,70.23
2023-01-05T22:21:14.304Z,70.54
2023-01-05T22:26:12.556Z,70.49
2023-01-05T22:31:10.122Z,70.36
2023-01-05T22:36:07.806Z,70.85
2023-01-05T22:41:04.983Z,71.54
2023-01-05T22:46:02.313Z,71.38
2023-01-05T22:51:02.128Z,71.39
2023-01-05T22:55:59.739Z,71.77
2023-01-05T23:01:07.589Z,72.09
2023-01-05T23:06:04.704Z,72.33
2023-01-05T23:11:02.788Z,71.71
2023-01-05T23:15:59.452Z,72.15
2023-01-05T23:20:56.941Z,71.77
2023-01-05T23:25:54.155Z,72.39
2023-01-05T23:30:52.049Z,72.73
2023-01-05T23:35:50.127Z,72.85
2023-01-05T23:40:47.803Z,73.36
2023-01-05T23:45:44.632Z,73.41
2023-01-05T23:50:42.500Z,76.20
2023-01-05T23:55:39.610Z,77.26
